createdAt,value
2023-10-21T00:01:33.585Z,98632.84
2023-10-21T00:04:36.335Z,98631.91
2023-10-21T00:07:39.492Z,98629.06
2023-10-21T00:10:42.131Z,98626.63
2023-10-21T00:13:46.136Z,98622.25
2023-10-21T00:16:50.996Z,98630.75
2023-10-21T00:19:53.697Z,98637.25
2023-10-21T00:22:56.656Z,98643.28
2023-10-21T00:26:03.047Z,98658.41
2023-10-21T00:29:07.086Z,98648.81
2023-10-21T00:32:09.734Z,98640.28
2023-10-21T00:35:12.348Z,98644.16
2023-10-21T00:38:15.080Z,98641.59
2023-10-21T00:41:17.735Z,98644.69
2023-10-21T00:44:21.745Z,98654.03
2023-10-21T00:47:24.510Z,98648.97
2023-10-21T00:50:27.418Z,98659.81
2023-10-21T00:53:30.171Z,98655.09
2023-10-21T00:56:32.856Z,98665.28
2023-10-21T00:59:37.278Z,98665.69
2023-10-21T01:02:41.053Z,98675.66
2023-10-21T01:05:43.812Z,98683.56
2023-10-21T01:08:47.445Z,98688.66
2023-10-21T01:11:50.174Z,98690.22
2023-10-21T01:14:54.679Z,98692.28
2023-10-21T01:17:57.431Z,98683.91
2023-10-21T01:21:00.245Z,98684.00
2023-10-21T01:24:04.422Z,98682.53
2023-10-21T01:27:07.150Z,98682.41
2023-10-21T01:30:10.475Z,98679.47
2023-10-21T01:33:13.286Z,98671.25
2023-10-21T01:36:16.038Z,98676.13
2023-10-21T01:39:20.209Z,98663.00
2023-10-21T01:42:23.002Z,98678.63
2023-10-21T01:45:25.728Z,98673.84
2023-10-21T01:48:28.396Z,98671.84
2023-10-21T01:51:31.113Z,98674.03
2023-10-21T01:54:35.150Z,98678.91
2023-10-21T01:57:37.862Z,98681.66
2023-10-21T02:00:40.537Z,98692.94
2023-10-21T02:03:43.840Z,98693.78
2023-10-21T02:06:46.571Z,98693.66
2023-10-21T02:09:50.708Z,98678.19
2023-10-21T02:12:53.335Z,98699.78
2023-10-21T02:15:56.011Z,98718.41
2023-10-21T02:18:58.710Z,98716.56
2023-10-21T02:22:01.352Z,98734.09
2023-10-21T02:25:13.379Z,98729.41
2023-10-21T02:28:17.999Z,98741.25
2023-10-21T02:31:20.660Z,98738.19
2023-10-21T02:34:24.034Z,98754.59
2023-10-21T02:37:26.744Z,98753.03
2023-10-21T02:40:30.785Z,98760.50
2023-10-21T02:43:34.096Z,98760.69
2023-10-21T02:46:36.726Z,98747.16
2023-10-21T02:49:39.372Z,98759.59
2023-10-21T02:52:42.054Z,98758.75
2023-10-21T02:55:46.083Z,98757.34
2023-10-21T02:58:48.764Z,98751.66
2023-10-21T03:01:51.572Z,98753.50
2023-10-21T03:04:54.258Z,98747.22
2023-10-21T03:07:57.590Z,98752.09
2023-10-21T03:11:03.560Z,98745.53
2023-10-21T03:14:06.316Z,98727.59
2023-10-21T03:17:09.104Z,98732.75
2023-10-21T03:20:12.424Z,98732.22
2023-10-21T03:23:15.046Z,98734.72
2023-10-21T03:26:19.030Z,98733.44
2023-10-21T03:29:21.688Z,98733.06
2023-10-21T03:32:24.334Z,98723.69
2023-10-21T03:35:27.016Z,98737.72
2023-10-21T03:38:30.390Z,98725.69
2023-10-21T03:41:34.413Z,98737.63
2023-10-21T03:44:37.196Z,98737.09
2023-10-21T03:47:40.918Z,98736.97
2023-10-21T03:50:43.589Z,98739.00
2023-10-21T03:53:46.578Z,98741.84
2023-10-21T03:56:52.467Z,98737.75
2023-10-21T03:59:55.236Z,98732.22
2023-10-21T04:02:59.213Z,98749.59
2023-10-21T04:06:02.263Z,98762.09
2023-10-21T04:09:05.230Z,98776.03
2023-10-21T04:12:09.738Z,98772.03
2023-10-21T04:15:12.935Z,98791.72
2023-10-21T04:18:15.764Z,98781.72
2023-10-21T04:21:19.013Z,98770.91
2023-10-21T04:24:21.710Z,98775.06
2023-10-21T04:27:27.276Z,98780.88
2023-10-21T04:30:30.257Z,98777.00
2023-10-21T04:33:32.965Z,98760.50
2023-10-21T04:36:35.625Z,98762.53
2023-10-21T04:39:38.468Z,98766.25
2023-10-21T04:42:42.983Z,98767.38
2023-10-21T04:45:45.628Z,98769.50
2023-10-21T04:48:48.352Z,98778.09
2023-10-21T04:51:51.013Z,98793.44
2023-10-21T04:54:53.662Z,98789.13
2023-10-21T04:57:57.656Z,98791.22
2023-10-21T05:01:00.338Z,98798.59
2023-10-21T05:04:03.386Z,98814.56
2023-10-21T05:07:06.228Z,98803.22
2023-10-21T05:10:09.910Z,98792.06
2023-10-21T05:13:13.903Z,98801.69
2023-10-21T05:16:16.594Z,98799.06
2023-10-21T05:19:21.676Z,98803.00
2023-10-21T05:22:25.440Z,98817.59
2023-10-21T05:25:28.318Z,98817.97
2023-10-21T05:28:32.521Z,98810.81
2023-10-21T05:31:35.229Z,98822.03
2023-10-21T05:34:40.556Z,98825.88
2023-10-21T05:37:43.452Z,98831.78
2023-10-21T05:40:47.326Z,98828.16
2023-10-21T05:43:51.310Z,98840.28
2023-10-21T05:46:53.923Z,98848.72
2023-10-21T05:49:56.778Z,98844.53
2023-10-21T05:52:59.515Z,98844.28
2023-10-21T05:56:02.196Z,98845.13
2023-10-21T05:59:06.282Z,98857.75
2023-10-21T06:02:10.194Z,98856.56
2023-10-21T06:05:13.766Z,98859.69
2023-10-21T06:08:16.414Z,98858.91
2023-10-21T06:11:19.071Z,98867.16
2023-10-21T06:14:23.204Z,98867.59
2023-10-21T06:17:25.880Z,98883.28
2023-10-21T06:20:28.644Z,98891.94
2023-10-21T06:23:32.328Z,98896.81
2023-10-21T06:26:34.970Z,98895.78
2023-10-21T06:29:39.013Z,98901.56
2023-10-21T06:32:42.248Z,98899.97
2023-10-21T06:35:44.951Z,98895.28
2023-10-21T06:38:50.303Z,98906.50
2023-10-21T06:41:53.229Z,98904.22
2023-10-21T06:44:57.291Z,98907.66
2023-10-21T06:48:03.128Z,98917.38
2023-10-21T06:51:06.261Z,98925.81
2023-10-21T06:54:09.615Z,98924.91
2023-10-21T06:57:21.030Z,98932.22
2023-10-21T07:00:25.371Z,98941.94
2023-10-21T07:03:28.195Z,98945.56
2023-10-21T07:06:30.903Z,98952.66
2023-10-21T07:09:33.614Z,98954.78
2023-10-21T07:12:36.900Z,98961.22
2023-10-21T07:15:41.330Z,98971.50
2023-10-21T07:18:44.031Z,98968.88
2023-10-21T07:21:46.711Z,98978.34
2023-10-21T07:24:49.346Z,98976.94
2023-10-21T07:27:52.102Z,98977.50
2023-10-21T07:30:56.172Z,98977.16
2023-10-21T07:33:58.856Z,98981.66
2023-10-21T07:37:01.519Z,98987.34
2023-10-21T07:40:06.735Z,98986.44
2023-10-21T07:43:10.651Z,98997.69
2023-10-21T07:46:15.194Z,98999.19
2023-10-21T07:49:18.545Z,99000.03
2023-10-21T07:52:21.185Z,99006.06
2023-10-21T07:55:24.033Z,99011.38
2023-10-21T07:58:26.679Z,99015.81
2023-10-21T08:01:30.871Z,99018.50
2023-10-21T08:04:33.764Z,99019.94
2023-10-21T08:07:36.781Z,99032.03
2023-10-21T08:10:39.570Z,99025.84
2023-10-21T08:13:42.203Z,99031.75
2023-10-21T08:16:47.311Z,99034.06
2023-10-21T08:19:50.140Z,99035.84
2023-10-21T08:22:52.849Z,99042.56
2023-10-21T08:25:56.081Z,99041.38
2023-10-21T08:28:58.915Z,99046.91
2023-10-21T08:32:02.935Z,99049.03
2023-10-21T08:35:06.036Z,99048.09
2023-10-21T08:38:08.688Z,99049.53
2023-10-21T08:41:12.477Z,99045.97
2023-10-21T08:44:15.769Z,99054.72
2023-10-21T08:47:21.206Z,99060.09
2023-10-21T08:50:25.310Z,99063.31
2023-10-21T08:53:28.774Z,99076.94
2023-10-21T08:56:31.689Z,99072.72
2023-10-21T08:59:34.867Z,99078.97
2023-10-21T09:02:39.139Z,99079.66
2023-10-21T09:06:07.100Z,99092.84
2023-10-21T09:09:23.689Z,99098.19
2023-10-21T09:12:28.347Z,99099.59
2023-10-21T09:15:37.033Z,99103.84
2023-10-21T09:18:41.236Z,99109.59
2023-10-21T09:21:45.736Z,99119.97
2023-10-21T09:24:48.869Z,99126.59
2023-10-21T09:27:54.415Z,99123.47
2023-10-21T09:30:59.220Z,99128.06
2023-10-21T09:34:04.524Z,99135.69
2023-10-21T09:37:09.477Z,99134.63
2023-10-21T09:40:13.780Z,99140.34
2023-10-21T09:43:16.557Z,99149.91
2023-10-21T09:46:21.645Z,99151.44
2023-10-21T09:49:28.762Z,99147.88
2023-10-21T09:52:38.718Z,99153.44
2023-10-21T09:55:41.951Z,99157.59
2023-10-21T09:58:45.309Z,99156.47
2023-10-21T10:01:48.511Z,99172.13
2023-10-21T10:04:54.764Z,99171.72
2023-10-21T10:07:57.444Z,99174.50
2023-10-21T10:11:01.737Z,99183.06
2023-10-21T10:14:04.694Z,99176.34
2023-10-21T10:17:07.496Z,99187.50
2023-10-21T10:20:22.023Z,99186.06
2023-10-21T10:23:27.189Z,99180.97
2023-10-21T10:26:35.390Z,99192.09
2023-10-21T10:29:38.581Z,99198.56
2023-10-21T10:32:44.918Z,99200.59
2023-10-21T10:35:50.759Z,99213.31
2023-10-21T10:38:55.984Z,99210.41
2023-10-21T10:42:00.094Z,99222.44
2023-10-21T10:45:04.284Z,99221.19
2023-10-21T10:48:08.557Z,99230.66
2023-10-21T10:51:15.135Z,99235.34
2023-10-21T10:54:19.460Z,99232.28
2023-10-21T10:57:22.499Z,99230.78
2023-10-21T11:00:27.041Z,99243.06
2023-10-21T11:03:32.677Z,99243.47
2023-10-21T11:06:40.714Z,99252.94
2023-10-21T11:09:43.460Z,99259.13
2023-10-21T11:12:46.150Z,99258.34
2023-10-21T11:15:52.949Z,99271.72
2023-10-21T11:18:55.906Z,99269.31
2023-10-21T11:21:59.894Z,99269.50
2023-10-21T11:25:05.185Z,99275.66
2023-10-21T11:28:08.345Z,99272.94
2023-10-21T11:31:11.681Z,99274.53
2023-10-21T11:34:15.671Z,99279.31
2023-10-21T11:37:20.228Z,99274.22
2023-10-21T11:40:23.602Z,99290.13
2023-10-21T11:43:28.956Z,99289.03
2023-10-21T11:46:31.779Z,99295.19
2023-10-21T11:49:35.578Z,99304.78
2023-10-21T11:52:43.132Z,99298.13
2023-10-21T11:56:03.233Z,99299.75
2023-10-21T11:59:33.477Z,99298.00
2023-10-21T12:02:53.517Z,99300.34
2023-10-21T12:06:13.132Z,99307.06
2023-10-21T12:09:34.776Z,99302.72
2023-10-21T12:13:20.351Z,99299.00
2023-10-21T12:16:33.500Z,99295.91
2023-10-21T12:20:02.196Z,99310.97
2023-10-21T12:23:27.962Z,99310.31
2023-10-21T12:26:54.311Z,99305.03
2023-10-21T12:30:43.749Z,99311.44
2023-10-21T12:34:01.150Z,99305.94
2023-10-21T12:37:20.903Z,99327.63
2023-10-21T12:40:33.246Z,99329.91
2023-10-21T12:43:37.574Z,99338.28
2023-10-21T12:46:41.483Z,99365.34
2023-10-21T12:49:44.423Z,99369.47
2023-10-21T12:52:48.713Z,99389.03
2023-10-21T12:55:52.393Z,99388.41
2023-10-21T12:58:56.393Z,99389.91
2023-10-21T13:01:59.022Z,99388.19
2023-10-21T13:05:01.830Z,99378.47
2023-10-21T13:08:08.636Z,99380.50
2023-10-21T13:11:12.419Z,99388.88
2023-10-21T13:14:18.298Z,99389.34
2023-10-21T13:17:21.098Z,99398.59
2023-10-21T13:20:24.513Z,99396.28
2023-10-21T13:23:27.480Z,99411.44
2023-10-21T13:26:30.127Z,99415.50
2023-10-21T13:29:34.291Z,99426.22
2023-10-21T13:32:37.833Z,99413.09
2023-10-21T13:35:40.524Z,99422.31
2023-10-21T13:38:43.157Z,99423.69
2023-10-21T13:41:45.943Z,99423.13
2023-10-21T13:44:50.104Z,99428.63
2023-10-21T13:47:56.504Z,99427.91
2023-10-21T13:51:00.869Z,99428.38
2023-10-21T13:54:04.607Z,99432.84
2023-10-21T13:57:07.602Z,99430.72
2023-10-21T14:00:26.715Z,99436.63
2023-10-21T14:03:29.690Z,99431.88
2023-10-21T14:06:33.130Z,99444.81
2023-10-21T14:09:37.992Z,99450.78
2023-10-21T14:12:41.104Z,99458.19
2023-10-21T14:15:46.554Z,99463.25
2023-10-21T14:18:49.300Z,99455.31
2023-10-21T14:21:52.539Z,99462.22
2023-10-21T14:24:55.255Z,99454.75
2023-10-21T14:27:57.934Z,99466.88
2023-10-21T14:31:04.645Z,99460.00
2023-10-21T14:34:08.514Z,99464.56
2023-10-21T14:37:11.166Z,99473.44
2023-10-21T14:40:14.576Z,99460.97
2023-10-21T14:43:18.280Z,99469.03
2023-10-21T14:46:24.102Z,99465.75
2023-10-21T14:49:26.789Z,99479.94
2023-10-21T14:52:29.660Z,99486.94
2023-10-21T14:55:48.086Z,99487.88
2023-10-21T14:58:54.046Z,99493.66
2023-10-21T15:01:58.178Z,99496.31
2023-10-21T15:05:01.052Z,99502.94
2023-10-21T15:08:03.821Z,99508.44
2023-10-21T15:11:07.157Z,99518.28
2023-10-21T15:14:09.802Z,99527.25
2023-10-21T15:17:14.149Z,99519.78
2023-10-21T15:20:18.364Z,99531.59
2023-10-21T15:23:21.016Z,99533.53
2023-10-21T15:26:23.811Z,99544.84
2023-10-21T15:29:26.469Z,99545.81
2023-10-21T15:32:30.866Z,99543.41
2023-10-21T15:35:33.631Z,99543.97
2023-10-21T15:38:36.293Z,99554.94
2023-10-21T15:41:38.953Z,99561.66
2023-10-21T15:44:41.900Z,99548.56
2023-10-21T15:47:46.382Z,99563.56
2023-10-21T15:50:49.075Z,99562.28
2023-10-21T15:53:51.722Z,99571.69
2023-10-21T15:56:54.328Z,99567.38
2023-10-21T15:59:56.974Z,99576.75
2023-10-21T16:03:01.068Z,99582.88
2023-10-21T16:06:03.788Z,99588.41
2023-10-21T16:09:06.963Z,99592.59
2023-10-21T16:12:10.200Z,99590.78
2023-10-21T16:15:13.451Z,99591.94
2023-10-21T16:18:17.621Z,99599.72
2023-10-21T16:21:20.377Z,99598.31
2023-10-21T16:24:23.416Z,99602.09
2023-10-21T16:27:26.064Z,99613.59
2023-10-21T16:30:28.808Z,99617.22
2023-10-21T16:33:32.935Z,99609.94
2023-10-21T16:36:35.748Z,99629.53
2023-10-21T16:39:38.641Z,99636.81
2023-10-21T16:42:41.532Z,99635.19
2023-10-21T16:45:44.382Z,99646.69
2023-10-21T16:48:48.563Z,99654.91
2023-10-21T16:51:51.193Z,99655.94
2023-10-21T16:54:53.940Z,99661.50
2023-10-21T16:57:56.662Z,99665.97
2023-10-21T17:00:59.395Z,99666.06
2023-10-21T17:04:03.500Z,99666.94
2023-10-21T17:07:06.200Z,99669.16
2023-10-21T17:10:11.285Z,99681.72
2023-10-21T17:13:13.968Z,99679.06
2023-10-21T17:16:17.139Z,99693.22
2023-10-21T17:19:21.516Z,99686.31
2023-10-21T17:22:24.168Z,99685.88
2023-10-21T17:25:27.872Z,99685.88
2023-10-21T17:28:30.515Z,99685.75
2023-10-21T17:31:33.238Z,99690.00
2023-10-21T17:34:37.432Z,99688.50
2023-10-21T17:37:40.135Z,99698.69
2023-10-21T17:40:46.027Z,99699.34
2023-10-21T17:43:49.808Z,99701.47
2023-10-21T17:46:52.452Z,99704.13
2023-10-21T17:49:56.444Z,99702.31
2023-10-21T17:52:59.135Z,99698.06
2023-10-21T17:56:02.156Z,99701.13
2023-10-21T17:59:06.247Z,99705.50
2023-10-21T18:02:09.562Z,99715.69
2023-10-21T18:05:13.597Z,99708.00
2023-10-21T18:08:16.264Z,99708.19
2023-10-21T18:11:18.923Z,99712.66
2023-10-21T18:14:21.530Z,99706.59
2023-10-21T18:17:24.411Z,99712.22
2023-10-21T18:20:28.447Z,99712.84
2023-10-21T18:23:31.107Z,99714.16
2023-10-21T18:26:33.877Z,99709.84
2023-10-21T18:29:37.339Z,99712.44
2023-10-21T18:32:40.135Z,99710.72
2023-10-21T18:35:44.205Z,99709.00
2023-10-21T18:38:46.880Z,99715.41
2023-10-21T18:41:49.940Z,99716.03
2023-10-21T18:44:52.644Z,99708.59
2023-10-21T18:47:55.656Z,99707.75
2023-10-21T18:51:00.195Z,99713.00
2023-10-21T18:54:03.566Z,99716.13
2023-10-21T18:57:06.330Z,99717.94
2023-10-21T19:00:12.474Z,99727.28
2023-10-21T19:03:15.177Z,99736.38
2023-10-21T19:06:19.240Z,99738.38
2023-10-21T19:09:21.953Z,99744.09
2023-10-21T19:12:24.908Z,99754.66
2023-10-21T19:15:27.668Z,99754.66
2023-10-21T19:18:30.335Z,99765.97
2023-10-21T19:21:34.448Z,99761.09
2023-10-21T19:24:37.222Z,99761.22
2023-10-21T19:27:39.896Z,99765.91
2023-10-21T19:30:42.769Z,99767.66
2023-10-21T19:33:45.957Z,99764.88
2023-10-21T19:36:50.028Z,99773.81
2023-10-21T19:39:53.259Z,99780.56
2023-10-21T19:42:56.934Z,99787.59
2023-10-21T19:45:59.825Z,99786.34
2023-10-21T19:49:05.323Z,99780.78
2023-10-21T19:52:10.238Z,99779.09
2023-10-21T19:55:13.081Z,99782.22
2023-10-21T19:58:16.360Z,99795.22
2023-10-21T20:01:19.064Z,99798.00
2023-10-21T20:04:21.969Z,99792.88
2023-10-21T20:07:28.538Z,99787.94
2023-10-21T20:10:31.173Z,99801.13
2023-10-21T20:13:34.122Z,99801.44
2023-10-21T20:16:36.857Z,99809.81
2023-10-21T20:19:39.794Z,99808.00
2023-10-21T20:22:43.829Z,99815.59
2023-10-21T20:25:46.985Z,99811.06
2023-10-21T20:28:49.659Z,99820.72
2023-10-21T20:31:52.360Z,99823.22
2023-10-21T20:34:55.907Z,99816.66
2023-10-21T20:37:59.889Z,99813.91
2023-10-21T20:41:09.506Z,99825.66
2023-10-21T20:44:12.183Z,99825.47
2023-10-21T20:47:14.843Z,99832.88
2023-10-21T20:50:18.417Z,99824.34
2023-10-21T20:53:22.488Z,99832.13
2023-10-21T20:56:25.900Z,99828.63
2023-10-21T20:59:28.718Z,99829.09
2023-10-21T21:02:33.301Z,99827.47
2023-10-21T21:05:37.915Z,99822.63
2023-10-21T21:08:41.901Z,99828.53
2023-10-21T21:11:45.052Z,99827.22
2023-10-21T21:14:47.709Z,99822.84
2023-10-21T21:17:51.238Z,99827.88
2023-10-21T21:20:53.921Z,99837.66
2023-10-21T21:23:57.909Z,99832.50
2023-10-21T21:27:00.561Z,99827.34
2023-10-21T21:30:03.316Z,99829.66
2023-10-21T21:33:05.967Z,99829.16
2023-10-21T21:36:10.546Z,99825.06
2023-10-21T21:39:15.074Z,99823.38
2023-10-21T21:42:17.777Z,99831.50
2023-10-21T21:45:20.493Z,99827.91
2023-10-21T21:48:23.253Z,99837.56
2023-10-21T21:51:26.023Z,99840.22
2023-10-21T21:54:31.540Z,99838.91
2023-10-21T21:57:34.234Z,99842.50
2023-10-21T22:00:42.926Z,99842.56
2023-10-21T22:03:46.357Z,99842.69
2023-10-21T22:06:50.608Z,99843.06
2023-10-21T22:09:55.463Z,99841.56
2023-10-21T22:12:58.112Z,99837.75
2023-10-21T22:16:02.063Z,99835.09
2023-10-21T22:19:05.565Z,99830.19
2023-10-21T22:22:08.430Z,99841.56
2023-10-21T22:25:16.195Z,99840.81
2023-10-21T22:28:23.567Z,99839.84
2023-10-21T22:31:26.684Z,99852.28
2023-10-21T22:34:29.425Z,99849.88
2023-10-21T22:37:32.048Z,99853.19
2023-10-21T22:40:36.307Z,99860.56
2023-10-21T22:43:40.113Z,99860.72
2023-10-21T22:46:43.701Z,99868.28
2023-10-21T22:49:47.029Z,99862.00
2023-10-21T22:52:49.764Z,99869.97
2023-10-21T22:55:53.743Z,99871.13
2023-10-21T22:58:56.399Z,99868.84
2023-10-21T23:02:00.363Z,99876.44
2023-10-21T23:05:03.475Z,99873.06
2023-10-21T23:08:15.595Z,99870.50
2023-10-21T23:11:20.431Z,99865.53
2023-10-21T23:14:23.325Z,99871.53
2023-10-21T23:17:26.015Z,99877.09
2023-10-21T23:20:28.775Z,99870.44
2023-10-21T23:23:31.460Z,99868.13
2023-10-21T23:26:35.443Z,99878.91
2023-10-21T23:29:38.175Z,99860.50
2023-10-21T23:32:41.008Z,99866.41
2023-10-21T23:35:43.792Z,99878.91
2023-10-21T23:38:46.495Z,99871.75
2023-10-21T23:41:50.563Z,99874.16
2023-10-21T23:44:53.257Z,99873.78
2023-10-21T23:47:55.934Z,99876.59
2023-10-21T23:50:58.782Z,99876.44
2023-10-21T23:54:01.928Z,99873.19
2023-10-21T23:57:06.486Z,99875.16
